createdAt,value
2018-09-03T00:00:51.925Z,46.05
2018-09-03T00:15:50.808Z,47.65
2018-09-03T00:30:50.280Z,48.24
2018-09-03T00:45:55.667Z,48.31
2018-09-03T01:00:50.200Z,48.28
2018-09-03T01:15:51.106Z,47.27
2018-09-03T01:30:50.760Z,46.28
2018-09-03T01:45:51.004Z,45.50
2018-09-03T02:00:51.246Z,44.54
2018-09-03T02:15:50.596Z,44.66
2018-09-03T02:30:51.059Z,45.42
2018-09-03T02:45:50.424Z,46.84
2018-09-03T03:00:50.979Z,49.34
2018-09-03T03:15:50.833Z,49.60
2018-09-03T03:30:50.531Z,49.06
2018-09-03T03:45:51.401Z,47.16
2018-09-03T04:00:50.544Z,47.09
2018-09-03T04:15:50.823Z,46.43
2018-09-03T04:30:50.908Z,46.14
2018-09-03T04:45:50.860Z,46.21
2018-09-03T05:00:50.875Z,45.36
2018-09-03T05:15:50.908Z,44.69
2018-09-03T05:30:50.772Z,43.72
2018-09-03T05:45:51.355Z,42.67
2018-09-03T06:00:51.274Z,43.31
2018-09-03T06:15:52.823Z,42.93
2018-09-03T06:30:50.674Z,43.54
2018-09-03T06:45:52.812Z,42.95
2018-09-03T07:00:50.664Z,42.00
2018-09-03T07:15:50.667Z,39.81
2018-09-03T07:30:51.000Z,38.12
2018-09-03T07:45:51.604Z,38.82
2018-09-03T08:00:50.998Z,37.66
2018-09-03T08:15:51.014Z,36.51
2018-09-03T08:30:50.601Z,36.38
2018-09-03T08:45:51.359Z,34.34
2018-09-03T09:00:51.336Z,34.89
2018-09-03T09:15:51.508Z,35.56
2018-09-03T09:30:50.856Z,33.96
2018-09-03T09:45:50.766Z,33.90
2018-09-03T10:00:55.793Z,32.48
2018-09-03T10:15:52.675Z,30.44
2018-09-03T10:30:54.152Z,30.19
2018-09-03T10:45:51.781Z,32.16
2018-09-03T11:00:51.086Z,32.19
2018-09-03T11:15:50.619Z,33.55
2018-09-03T11:30:51.035Z,33.03
2018-09-03T11:45:51.090Z,34.13
2018-09-03T12:00:50.613Z,37.88
2018-09-03T12:15:54.650Z,41.24
2018-09-03T12:30:50.935Z,43.95
2018-09-03T12:45:57.708Z,47.05
2018-09-03T13:00:53.248Z,62.42
2018-09-03T13:15:51.071Z,61.16
2018-09-03T13:30:52.578Z,64.05
2018-09-03T13:45:50.443Z,63.28
2018-09-03T14:00:50.926Z,63.40
2018-09-03T14:15:50.998Z,61.80
2018-09-03T14:30:50.335Z,61.23
2018-09-03T14:45:50.311Z,60.61
2018-09-03T15:00:50.719Z,57.60
2018-09-03T15:15:50.295Z,54.21
2018-09-03T15:30:50.996Z,55.40
2018-09-03T15:45:51.705Z,53.30
2018-09-03T16:00:50.993Z,53.40
2018-09-03T16:15:50.979Z,54.13
2018-09-03T16:30:50.520Z,56.06
2018-09-03T16:45:50.361Z,56.90
2018-09-03T17:00:49.882Z,59.17
2018-09-03T17:15:52.172Z,59.53
2018-09-03T17:30:52.513Z,59.93
2018-09-03T17:45:50.835Z,59.79
2018-09-03T18:00:50.821Z,59.93
2018-09-03T18:15:51.131Z,60.02
2018-09-03T18:30:51.261Z,59.51
2018-09-03T18:45:53.051Z,61.79
2018-09-03T19:00:53.188Z,60.19
2018-09-03T19:15:50.879Z,59.87
2018-09-03T19:30:50.447Z,60.36
2018-09-03T19:45:50.410Z,59.32
2018-09-03T20:00:50.610Z,58.61
2018-09-03T20:15:50.163Z,58.47
2018-09-03T20:30:50.926Z,58.81
2018-09-03T20:45:51.013Z,58.70
2018-09-03T21:00:51.162Z,59.56
2018-09-03T21:15:50.609Z,60.82
2018-09-03T21:30:50.162Z,61.03
2018-09-03T21:45:49.631Z,60.68
2018-09-03T22:00:50.354Z,60.93
2018-09-03T22:15:53.141Z,61.46
2018-09-03T22:30:50.543Z,60.89
2018-09-03T22:45:50.471Z,61.23
2018-09-03T23:00:52.103Z,61.32
2018-09-03T23:15:51.372Z,60.83
2018-09-03T23:30:50.865Z,61.01
2018-09-03T23:45:50.841Z,61.45
